createdAt,value
2019-04-28T00:00:31.493Z,9.90
2019-04-28T00:03:01.233Z,9.90
2019-04-28T00:05:33.284Z,9.90
2019-04-28T00:08:02.394Z,9.80
2019-04-28T00:10:32.211Z,9.80
2019-04-28T00:13:02.838Z,9.80
2019-04-28T00:15:34.078Z,9.80
2019-04-28T00:18:15.828Z,9.80
2019-04-28T00:20:50.986Z,9.80
2019-04-28T00:23:22.376Z,9.80
2019-04-28T00:26:11.082Z,9.80
2019-04-28T00:28:41.656Z,9.80
2019-04-28T00:31:11.475Z,9.80
2019-04-28T00:33:43.522Z,9.80
2019-04-28T00:36:12.920Z,9.80
2019-04-28T00:38:42.675Z,9.80
2019-04-28T00:41:12.438Z,9.80
2019-04-28T00:43:42.187Z,9.80
2019-04-28T00:46:12.588Z,9.80
2019-04-28T00:48:42.461Z,9.80
2019-04-28T00:51:12.224Z,9.80
2019-04-28T00:53:41.995Z,9.80
2019-04-28T00:56:12.124Z,9.80
2019-04-28T00:58:42.034Z,9.80
2019-04-28T01:01:21.301Z,9.80
2019-04-28T01:03:52.001Z,9.80
2019-04-28T01:06:22.318Z,9.80
2019-04-28T01:08:53.588Z,9.80
2019-04-28T01:11:24.435Z,9.80
2019-04-28T01:13:54.200Z,9.80
2019-04-28T01:16:25.525Z,9.80
2019-04-28T01:19:03.148Z,9.80
2019-04-28T01:21:51.014Z,9.80
2019-04-28T01:24:20.764Z,9.80
2019-04-28T01:26:52.090Z,9.80
2019-04-28T01:29:21.819Z,9.70
2019-04-28T01:32:05.146Z,9.70
2019-04-28T01:34:35.072Z,9.70
2019-04-28T01:37:04.837Z,9.70
2019-04-28T01:39:34.582Z,9.70
2019-04-28T01:42:04.387Z,9.70
2019-04-28T01:44:34.125Z,9.70
2019-04-28T01:47:03.895Z,9.70
2019-04-28T01:49:33.662Z,9.70
2019-04-28T01:52:03.400Z,9.70
2019-04-28T01:54:33.192Z,9.70
2019-04-28T01:57:02.939Z,9.70
2019-04-28T01:59:32.800Z,9.70
2019-04-28T02:02:02.558Z,9.70
2019-04-28T02:04:32.641Z,9.70
2019-04-28T02:07:02.544Z,9.70
2019-04-28T02:09:32.277Z,9.70
2019-04-28T02:12:02.045Z,9.70
2019-04-28T02:14:31.794Z,9.70
2019-04-28T02:17:01.548Z,9.70
2019-04-28T02:19:33.047Z,9.70
2019-04-28T02:22:21.435Z,9.70
2019-04-28T02:24:52.308Z,9.70
2019-04-28T02:27:22.260Z,9.70
2019-04-28T02:29:52.007Z,9.70
2019-04-28T02:32:24.389Z,9.70
2019-04-28T02:34:53.173Z,9.70
2019-04-28T02:37:22.966Z,9.70
2019-04-28T02:40:05.285Z,9.70
2019-04-28T02:42:35.051Z,9.70
2019-04-28T02:45:07.304Z,9.70
2019-04-28T02:47:37.994Z,9.70
2019-04-28T02:50:24.526Z,9.70
2019-04-28T02:53:01.627Z,9.70
2019-04-28T02:55:31.836Z,9.70
2019-04-28T02:58:02.668Z,9.70
2019-04-28T03:00:32.394Z,9.60
2019-04-28T03:03:02.138Z,9.60
2019-04-28T03:05:33.516Z,9.70
2019-04-28T03:08:03.260Z,9.70
2019-04-28T03:10:33.255Z,9.70
2019-04-28T03:13:02.998Z,9.70
2019-04-28T03:15:32.766Z,9.70
2019-04-28T03:18:02.626Z,9.70
2019-04-28T03:20:32.758Z,9.70
2019-04-28T03:23:02.521Z,9.70
2019-04-28T03:25:33.821Z,9.60
2019-04-28T03:28:08.282Z,9.60
2019-04-28T03:30:43.671Z,9.60
2019-04-28T03:33:18.907Z,9.60
2019-04-28T03:35:46.634Z,9.70
2019-04-28T03:38:16.440Z,9.60
2019-04-28T03:40:46.180Z,9.60
2019-04-28T03:43:15.925Z,9.60
2019-04-28T03:45:53.456Z,9.60
2019-04-28T03:48:23.209Z,9.70
2019-04-28T03:50:53.971Z,9.70
2019-04-28T03:53:23.717Z,9.70
2019-04-28T03:55:53.488Z,9.70
2019-04-28T03:58:24.266Z,9.60
2019-04-28T04:00:54.265Z,9.70
2019-04-28T04:03:24.007Z,9.70
2019-04-28T04:05:53.801Z,9.70
2019-04-28T04:08:23.558Z,9.70
2019-04-28T04:11:04.135Z,9.70
2019-04-28T04:13:38.160Z,9.70
2019-04-28T04:16:20.659Z,9.60
2019-04-28T04:18:53.787Z,9.70
2019-04-28T04:21:22.749Z,9.70
2019-04-28T04:23:52.500Z,9.70
2019-04-28T04:26:22.230Z,9.70
2019-04-28T04:28:52.824Z,9.70
2019-04-28T04:31:22.582Z,9.80
2019-04-28T04:33:52.436Z,9.80
2019-04-28T04:36:22.280Z,9.80
2019-04-28T04:38:52.001Z,9.80
2019-04-28T04:41:22.800Z,9.80
2019-04-28T04:43:52.540Z,9.80
2019-04-28T04:46:23.986Z,9.80
2019-04-28T04:48:53.876Z,9.90
2019-04-28T04:51:23.628Z,9.90
2019-04-28T04:53:53.460Z,9.90
2019-04-28T04:56:23.212Z,9.90
2019-04-28T04:58:52.952Z,9.90
2019-04-28T05:01:30.474Z,9.90
2019-04-28T05:04:01.935Z,9.90
2019-04-28T05:06:35.743Z,9.90
2019-04-28T05:09:10.358Z,10.00
2019-04-28T05:11:40.374Z,10.00
2019-04-28T05:14:12.043Z,10.00
2019-04-28T05:16:43.147Z,10.00
2019-04-28T05:19:12.950Z,10.10
2019-04-28T05:21:42.695Z,10.10
2019-04-28T05:24:20.956Z,10.10
2019-04-28T05:26:51.574Z,10.10
2019-04-28T05:29:26.920Z,10.20
2019-04-28T05:31:54.924Z,10.20
2019-04-28T05:34:25.497Z,10.20
2019-04-28T05:36:55.309Z,10.20
2019-04-28T05:39:26.193Z,10.20
2019-04-28T05:41:56.083Z,10.20
2019-04-28T05:44:25.825Z,10.30
2019-04-28T05:46:55.623Z,10.30
2019-04-28T05:49:43.067Z,10.30
2019-04-28T05:52:30.011Z,10.20
2019-04-28T05:55:07.136Z,10.30
2019-04-28T05:57:39.761Z,10.20
2019-04-28T06:00:29.844Z,10.20
2019-04-28T06:03:04.269Z,10.30
2019-04-28T06:05:34.025Z,10.30
2019-04-28T06:08:14.398Z,10.30
2019-04-28T06:10:44.149Z,10.40
2019-04-28T06:13:13.945Z,10.30
2019-04-28T06:15:43.699Z,10.30
2019-04-28T06:18:13.449Z,10.30
2019-04-28T06:20:43.192Z,10.30
2019-04-28T06:23:12.943Z,10.30
2019-04-28T06:25:42.756Z,10.30
2019-04-28T06:28:12.489Z,10.20
2019-04-28T06:30:42.259Z,10.20
2019-04-28T06:33:12.016Z,10.30
2019-04-28T06:35:41.764Z,10.30
2019-04-28T06:38:11.509Z,10.30
2019-04-28T06:40:41.263Z,10.30
2019-04-28T06:43:11.193Z,10.30
2019-04-28T06:45:40.947Z,10.40
2019-04-28T06:48:10.711Z,10.40
2019-04-28T06:50:40.452Z,10.50
2019-04-28T06:53:10.212Z,10.60
2019-04-28T06:55:39.957Z,10.50
2019-04-28T06:58:09.700Z,10.40
2019-04-28T07:00:39.488Z,10.30
2019-04-28T07:03:17.023Z,10.30
2019-04-28T07:05:41.630Z,10.30
2019-04-28T07:08:13.789Z,10.20
2019-04-28T07:10:42.795Z,10.30
2019-04-28T07:13:12.520Z,10.30
2019-04-28T07:15:42.278Z,10.30
2019-04-28T07:18:13.050Z,10.40
2019-04-28T07:20:53.438Z,10.30
2019-04-28T07:23:24.281Z,10.20
2019-04-28T07:25:54.017Z,10.20
2019-04-28T07:28:23.781Z,10.30
2019-04-28T07:30:53.545Z,10.30
2019-04-28T07:33:35.317Z,10.30
2019-04-28T07:35:54.677Z,10.30
2019-04-28T07:38:24.408Z,10.20
2019-04-28T07:40:54.199Z,10.30
2019-04-28T07:43:23.936Z,10.30
2019-04-28T07:45:53.703Z,10.30
2019-04-28T07:48:23.474Z,10.30
2019-04-28T07:50:53.209Z,10.30
2019-04-28T07:53:27.592Z,10.50
2019-04-28T07:55:57.340Z,10.30
2019-04-28T07:58:28.540Z,10.30
2019-04-28T08:00:58.633Z,10.40
2019-04-28T08:03:30.298Z,10.50
2019-04-28T08:06:00.048Z,10.50
2019-04-28T08:08:29.787Z,10.60
2019-04-28T08:10:59.562Z,10.60
2019-04-28T08:13:30.308Z,10.70
2019-04-28T08:16:00.068Z,10.50
2019-04-28T08:18:31.647Z,10.60
2019-04-28T08:21:01.230Z,10.60
2019-04-28T08:23:30.961Z,10.60
2019-04-28T08:26:01.569Z,10.70
2019-04-28T08:28:31.324Z,10.60
2019-04-28T08:31:01.065Z,10.60
2019-04-28T08:33:33.287Z,10.50
2019-04-28T08:36:03.142Z,10.50
2019-04-28T08:38:34.015Z,10.60
2019-04-28T08:41:03.770Z,10.50
2019-04-28T08:43:33.521Z,10.50
2019-04-28T08:46:03.301Z,10.70
2019-04-28T08:48:33.047Z,10.60
2019-04-28T08:51:02.834Z,10.60
2019-04-28T08:53:32.567Z,10.50
2019-04-28T08:56:02.600Z,10.70
2019-04-28T08:58:32.351Z,10.80
2019-04-28T09:01:02.098Z,10.80
2019-04-28T09:03:32.729Z,10.80
2019-04-28T09:06:02.469Z,10.70
2019-04-28T09:08:33.252Z,10.60
2019-04-28T09:11:22.265Z,10.60
2019-04-28T09:13:52.056Z,10.50
2019-04-28T09:16:21.786Z,10.80
2019-04-28T09:18:51.535Z,10.60
2019-04-28T09:21:21.313Z,10.50
2019-04-28T09:23:51.075Z,10.50
2019-04-28T09:26:20.863Z,10.50
2019-04-28T09:28:51.457Z,10.50
2019-04-28T09:31:22.876Z,10.60
2019-04-28T09:33:52.624Z,10.60
2019-04-28T09:36:22.735Z,10.60
2019-04-28T09:38:52.797Z,10.50
2019-04-28T09:41:22.547Z,10.50
2019-04-28T09:43:59.731Z,10.60
2019-04-28T09:46:34.070Z,10.60
2019-04-28T09:49:03.832Z,10.60
2019-04-28T09:51:33.575Z,10.80
2019-04-28T09:54:03.404Z,10.70
2019-04-28T09:56:33.140Z,10.60
2019-04-28T09:59:04.146Z,10.90
2019-04-28T10:01:33.895Z,10.70
2019-04-28T10:04:03.659Z,10.70
2019-04-28T10:06:33.417Z,10.50
2019-04-28T10:09:06.893Z,10.40
2019-04-28T10:11:36.842Z,10.30
2019-04-28T10:14:06.589Z,10.50
2019-04-28T10:16:36.346Z,10.70
2019-04-28T10:19:06.099Z,10.60
2019-04-28T10:21:35.866Z,10.60
2019-04-28T10:24:05.623Z,10.60
2019-04-28T10:26:35.389Z,10.70
2019-04-28T10:29:06.991Z,10.60
2019-04-28T10:31:36.864Z,10.70
2019-04-28T10:34:06.731Z,10.80
2019-04-28T10:36:36.490Z,10.60
2019-04-28T10:39:18.835Z,10.40
2019-04-28T10:41:48.597Z,10.50
2019-04-28T10:44:18.551Z,10.60
2019-04-28T10:46:48.606Z,10.50
2019-04-28T10:49:18.321Z,10.60
2019-04-28T10:51:58.804Z,10.80
2019-04-28T10:54:19.478Z,10.80
2019-04-28T10:56:49.575Z,10.90
2019-04-28T10:59:20.396Z,10.80
2019-04-28T11:01:50.156Z,10.70
2019-04-28T11:04:39.667Z,10.90
2019-04-28T11:07:13.877Z,10.90
2019-04-28T11:09:45.300Z,10.90
2019-04-28T11:12:29.016Z,10.90
2019-04-28T11:14:58.805Z,10.90
2019-04-28T11:17:28.536Z,10.80
2019-04-28T11:19:58.280Z,10.60
2019-04-28T11:22:28.056Z,10.80
2019-04-28T11:24:57.792Z,10.90
2019-04-28T11:27:27.899Z,11.00
2019-04-28T11:29:58.469Z,11.00
2019-04-28T11:32:28.255Z,10.80
2019-04-28T11:35:02.300Z,10.90
2019-04-28T11:37:32.056Z,10.90
2019-04-28T11:40:01.866Z,11.30
2019-04-28T11:42:31.768Z,11.50
2019-04-28T11:45:01.519Z,11.60
2019-04-28T11:47:31.288Z,11.50
2019-04-28T11:50:01.017Z,11.40
2019-04-28T11:52:30.811Z,11.40
2019-04-28T11:55:00.555Z,11.30
2019-04-28T11:57:30.516Z,11.50
2019-04-28T12:00:00.312Z,11.20
2019-04-28T12:02:31.357Z,11.00
2019-04-28T12:05:01.238Z,11.20
2019-04-28T12:07:32.081Z,11.30
2019-04-28T12:10:06.569Z,11.50
2019-04-28T12:12:37.988Z,11.40
2019-04-28T12:15:28.895Z,11.20
2019-04-28T12:18:06.342Z,11.10
2019-04-28T12:20:36.243Z,11.00
2019-04-28T12:23:06.207Z,11.10
2019-04-28T12:25:35.965Z,11.20
2019-04-28T12:28:05.830Z,11.30
2019-04-28T12:30:35.587Z,11.20
2019-04-28T12:33:05.568Z,11.30
2019-04-28T12:35:47.261Z,11.30
2019-04-28T12:38:06.696Z,11.30
2019-04-28T12:40:37.526Z,11.20
2019-04-28T12:43:07.439Z,11.20
2019-04-28T12:45:37.202Z,11.10
2019-04-28T12:48:07.052Z,11.10
2019-04-28T12:50:44.732Z,10.90
2019-04-28T12:53:14.443Z,11.10
2019-04-28T12:55:44.204Z,11.20
2019-04-28T12:58:13.959Z,11.30
2019-04-28T13:00:45.300Z,11.30
2019-04-28T13:03:16.649Z,11.00
2019-04-28T13:06:00.134Z,11.00
2019-04-28T13:08:19.349Z,10.90
2019-04-28T13:10:49.099Z,10.80
2019-04-28T13:13:19.089Z,10.90
2019-04-28T13:15:48.839Z,11.00
2019-04-28T13:18:31.143Z,10.80
2019-04-28T13:21:00.906Z,10.60
2019-04-28T13:23:30.734Z,10.50
2019-04-28T13:26:00.496Z,10.60
2019-04-28T13:28:30.348Z,10.60
2019-04-28T13:31:00.237Z,10.80
2019-04-28T13:33:29.995Z,10.70
2019-04-28T13:35:59.745Z,10.60
2019-04-28T13:38:29.490Z,10.60
2019-04-28T13:40:59.216Z,10.70
2019-04-28T13:43:29.094Z,10.70
2019-04-28T13:45:58.839Z,10.50
2019-04-28T13:48:28.603Z,10.30
2019-04-28T13:50:58.349Z,10.30
2019-04-28T13:53:28.099Z,10.30
2019-04-28T13:55:59.434Z,10.30
2019-04-28T13:58:30.764Z,10.20
2019-04-28T14:01:14.357Z,10.10
2019-04-28T14:03:57.771Z,10.10
2019-04-28T14:06:34.629Z,10.20
2019-04-28T14:09:07.725Z,10.40
2019-04-28T14:11:39.060Z,10.40
2019-04-28T14:14:08.803Z,10.20
2019-04-28T14:16:38.566Z,10.20
2019-04-28T14:19:08.660Z,10.40
2019-04-28T14:21:38.411Z,10.40
2019-04-28T14:24:08.242Z,10.40
2019-04-28T14:26:40.085Z,10.20
2019-04-28T14:29:09.487Z,10.10
2019-04-28T14:31:50.851Z,10.20
2019-04-28T14:34:20.646Z,10.20
2019-04-28T14:36:50.419Z,10.20
2019-04-28T14:39:20.585Z,10.20
2019-04-28T14:41:50.339Z,10.30
2019-04-28T14:44:20.104Z,10.00
2019-04-28T14:46:49.856Z,10.00
2019-04-28T14:49:19.597Z,10.00
2019-04-28T14:51:49.464Z,9.80
2019-04-28T14:54:19.151Z,9.80
2019-04-28T14:56:48.896Z,9.70
2019-04-28T14:59:20.045Z,9.80
2019-04-28T15:02:07.628Z,9.80
2019-04-28T15:04:55.269Z,9.70
2019-04-28T15:07:35.952Z,9.70
2019-04-28T15:10:17.406Z,9.70
2019-04-28T15:12:47.148Z,9.70
2019-04-28T15:15:19.816Z,9.70
2019-04-28T15:17:48.339Z,9.60
2019-04-28T15:20:18.111Z,9.60
2019-04-28T15:23:07.096Z,9.60
2019-04-28T15:25:36.920Z,9.60
2019-04-28T15:28:06.663Z,9.60
2019-04-28T15:30:36.387Z,9.60
2019-04-28T15:33:06.136Z,9.60
2019-04-28T15:35:35.883Z,9.50
2019-04-28T15:38:06.662Z,9.50
2019-04-28T15:40:36.403Z,9.60
2019-04-28T15:43:06.515Z,9.50
2019-04-28T15:45:36.264Z,9.60
2019-04-28T15:48:06.218Z,9.60
2019-04-28T15:50:35.949Z,9.50
2019-04-28T15:53:05.777Z,9.50
2019-04-28T15:55:40.108Z,9.60
2019-04-28T15:58:27.465Z,9.50
2019-04-28T16:00:59.427Z,9.50
2019-04-28T16:03:29.221Z,9.50
2019-04-28T16:06:00.075Z,9.50
2019-04-28T16:08:30.037Z,9.40
2019-04-28T16:10:59.787Z,9.40
2019-04-28T16:13:29.548Z,9.40
2019-04-28T16:15:59.591Z,9.40
2019-04-28T16:18:29.395Z,9.30
2019-04-28T16:20:59.411Z,9.30
2019-04-28T16:23:29.170Z,9.30
2019-04-28T16:25:58.921Z,9.30
2019-04-28T16:28:28.663Z,9.40
2019-04-28T16:30:58.456Z,9.30
2019-04-28T16:33:28.315Z,9.40
2019-04-28T16:35:59.374Z,9.30
2019-04-28T16:38:31.464Z,9.40
2019-04-28T16:41:01.271Z,9.30
2019-04-28T16:43:32.634Z,9.30
2019-04-28T16:46:03.412Z,9.30
2019-04-28T16:48:33.498Z,9.30
2019-04-28T16:51:03.262Z,9.30
2019-04-28T16:53:33.027Z,9.30
2019-04-28T16:56:10.328Z,9.30
2019-04-28T16:58:59.454Z,9.30
2019-04-28T17:01:43.395Z,9.30
2019-04-28T17:04:14.729Z,9.20
2019-04-28T17:06:44.479Z,9.30
2019-04-28T17:09:16.407Z,9.30
2019-04-28T17:11:46.146Z,9.30
2019-04-28T17:14:15.908Z,9.30
2019-04-28T17:16:45.852Z,9.20
2019-04-28T17:19:15.734Z,9.20
2019-04-28T17:21:45.471Z,9.20
2019-04-28T17:24:15.238Z,9.20
2019-04-28T17:26:44.999Z,9.20
2019-04-28T17:29:14.731Z,9.20
2019-04-28T17:31:44.612Z,9.10
2019-04-28T17:34:15.171Z,9.10
2019-04-28T17:36:44.981Z,9.10
2019-04-28T17:39:19.316Z,9.10
2019-04-28T17:41:49.048Z,9.00
2019-04-28T17:44:18.796Z,9.10
2019-04-28T17:46:48.652Z,9.10
2019-04-28T17:49:20.104Z,9.10
2019-04-28T17:51:49.839Z,9.00
2019-04-28T17:54:19.572Z,9.00
2019-04-28T17:56:49.335Z,9.00
2019-04-28T17:59:19.059Z,9.00
2019-04-28T18:01:56.416Z,9.00
2019-04-28T18:04:33.120Z,9.00
2019-04-28T18:07:04.435Z,9.00
2019-04-28T18:09:34.174Z,9.00
2019-04-28T18:12:04.231Z,9.00
2019-04-28T18:14:34.721Z,9.00
2019-04-28T18:17:23.632Z,9.00
2019-04-28T18:19:53.461Z,9.00
2019-04-28T18:22:23.303Z,9.00
2019-04-28T18:24:55.928Z,8.90
2019-04-28T18:27:26.655Z,8.90
2019-04-28T18:29:56.410Z,8.90
2019-04-28T18:32:30.766Z,8.90
2019-04-28T18:35:18.016Z,8.90
2019-04-28T18:38:03.003Z,8.90
2019-04-28T18:40:40.474Z,8.90
2019-04-28T18:43:23.408Z,8.90
2019-04-28T18:45:53.152Z,8.90
2019-04-28T18:48:22.904Z,8.90
2019-04-28T18:50:52.675Z,8.90
2019-04-28T18:53:22.407Z,8.90
2019-04-28T18:55:52.174Z,8.90
2019-04-28T18:58:21.921Z,8.90
2019-04-28T19:00:53.271Z,8.90
2019-04-28T19:03:23.625Z,8.90
2019-04-28T19:05:54.219Z,8.90
2019-04-28T19:08:31.806Z,8.90
2019-04-28T19:11:12.342Z,8.80
2019-04-28T19:13:43.661Z,8.80
2019-04-28T19:16:15.017Z,8.80
2019-04-28T19:18:46.325Z,8.80
2019-04-28T19:21:16.162Z,8.80
2019-04-28T19:23:45.905Z,8.70
2019-04-28T19:26:16.668Z,8.70
2019-04-28T19:28:46.719Z,8.80
2019-04-28T19:31:16.465Z,8.70
2019-04-28T19:33:46.771Z,8.70
2019-04-28T19:36:16.589Z,8.70
2019-04-28T19:38:46.448Z,8.70
2019-04-28T19:41:16.205Z,8.70
2019-04-28T19:43:45.960Z,8.70
2019-04-28T19:46:18.820Z,8.70
2019-04-28T19:48:48.561Z,8.70
2019-04-28T19:51:31.124Z,8.60
2019-04-28T19:53:50.316Z,8.60
2019-04-28T19:56:38.121Z,8.60
2019-04-28T19:59:25.958Z,8.60
2019-04-28T20:01:56.074Z,8.60
2019-04-28T20:04:26.202Z,8.50
2019-04-28T20:06:57.080Z,8.50
2019-04-28T20:09:26.899Z,8.60
2019-04-28T20:11:56.721Z,8.50
2019-04-28T20:14:26.472Z,8.50
2019-04-28T20:16:56.243Z,8.50
2019-04-28T20:19:26.291Z,8.50
2019-04-28T20:21:56.039Z,8.50
2019-04-28T20:24:25.892Z,8.50
2019-04-28T20:26:55.647Z,8.50
2019-04-28T20:29:25.400Z,8.50
2019-04-28T20:31:55.120Z,8.50
2019-04-28T20:34:24.894Z,8.50
2019-04-28T20:36:59.067Z,8.50
2019-04-28T20:39:30.498Z,8.50
2019-04-28T20:42:01.915Z,8.50
2019-04-28T20:44:31.705Z,8.50
2019-04-28T20:47:01.444Z,8.50
2019-04-28T20:49:31.201Z,8.50
2019-04-28T20:52:00.938Z,8.50
2019-04-28T20:54:30.895Z,8.50
2019-04-28T20:57:00.751Z,8.40
2019-04-28T20:59:30.489Z,8.50
2019-04-28T21:02:00.267Z,8.50
2019-04-28T21:04:30.009Z,8.50
2019-04-28T21:06:59.736Z,8.50
2019-04-28T21:09:29.480Z,8.50
2019-04-28T21:11:59.261Z,8.50
2019-04-28T21:14:29.029Z,8.50
2019-04-28T21:16:58.762Z,8.50
2019-04-28T21:19:28.516Z,8.50
2019-04-28T21:21:58.268Z,8.50
2019-04-28T21:24:28.004Z,8.50
2019-04-28T21:26:57.803Z,8.50
2019-04-28T21:29:27.558Z,8.50
2019-04-28T21:31:57.311Z,8.50
2019-04-28T21:34:27.067Z,8.50
2019-04-28T21:36:56.809Z,8.50
2019-04-28T21:39:26.596Z,8.50
2019-04-28T21:41:57.647Z,8.50
2019-04-28T21:44:38.048Z,8.50
2019-04-28T21:47:11.796Z,8.50
2019-04-28T21:49:43.281Z,8.50
2019-04-28T21:52:13.018Z,8.50
2019-04-28T21:54:42.768Z,8.50
2019-04-28T21:57:12.519Z,8.50
2019-04-28T21:59:42.253Z,8.50
2019-04-28T22:02:12.036Z,8.50
2019-04-28T22:04:42.071Z,8.50
2019-04-28T22:07:12.064Z,8.50
2019-04-28T22:09:41.831Z,8.50
2019-04-28T22:12:13.120Z,8.50
2019-04-28T22:14:42.899Z,8.50
2019-04-28T22:17:12.647Z,8.50
2019-04-28T22:19:42.390Z,8.50
2019-04-28T22:22:12.290Z,8.50
2019-04-28T22:24:43.604Z,8.50
2019-04-28T22:27:13.761Z,8.50
2019-04-28T22:29:43.508Z,8.50
2019-04-28T22:32:13.301Z,8.40
2019-04-28T22:34:43.018Z,8.50
2019-04-28T22:37:12.746Z,8.50
2019-04-28T22:39:42.500Z,8.50
2019-04-28T22:42:13.783Z,8.50
2019-04-28T22:44:43.569Z,8.50
2019-04-28T22:47:13.313Z,8.50
2019-04-28T22:49:43.050Z,8.50
2019-04-28T22:52:12.812Z,8.50
2019-04-28T22:54:49.962Z,8.50
2019-04-28T22:57:37.254Z,8.50
2019-04-28T23:00:11.347Z,8.50
2019-04-28T23:02:42.657Z,8.50
2019-04-28T23:05:12.388Z,8.50
2019-04-28T23:07:42.143Z,8.50
2019-04-28T23:10:13.483Z,8.60
2019-04-28T23:12:43.294Z,8.50
2019-04-28T23:15:14.051Z,8.60
2019-04-28T23:17:44.001Z,8.50
2019-04-28T23:20:13.920Z,8.60
2019-04-28T23:22:48.083Z,8.60
2019-04-28T23:25:17.823Z,8.60
2019-04-28T23:27:47.568Z,8.60
2019-04-28T23:30:36.915Z,8.50
2019-04-28T23:33:06.735Z,8.60
2019-04-28T23:35:36.523Z,8.60
2019-04-28T23:38:06.324Z,8.60
2019-04-28T23:40:37.594Z,8.60
2019-04-28T23:43:08.981Z,8.60
2019-04-28T23:45:39.070Z,8.60
2019-04-28T23:48:08.813Z,8.60
2019-04-28T23:50:40.172Z,8.50
2019-04-28T23:53:11.478Z,8.60
2019-04-28T23:55:41.263Z,8.60
2019-04-28T23:58:11.004Z,8.60
